Bighorn, Montana
Current Conditions -  °F | °C
As of 8:53 AM on Thursday 27 Nov 2014 (Local Time) from KBIL Reporting Station
Broken Clouds Broken Clouds  
Wind Chill: -3°   Ceiling: 14000
Heat Index:   Visibility: 10mi
Dew Point: -2°   Wind: 18mph
Humidity: 73%   Direction: 240°WSW
Pressure: 29.91"   Gusts: NA
Location:  46.16°N, 107.45°W
Report Text: KBIL 271553Z 24016KT 10SM FEW110 BKN140 03/M02 A2991 RMK AO2 SLP153 ACSL W-S SHRASN DSNT NE SW T00281017 $
Loading
Personal Weather Stations






























Interactive Weather Map New forecast layout! Learn more

10-Day Weather Forecast

Advertisements
Track Severe Weather on mobile